Corpus Christi, TX

11:43 PM CDT on August 30, 2016 (GMT -0500)
Corpus Christi International | | Change Station
Active Advisory: Coastal Flood Advisory

Elev 43 ft 27.77 °N, 97.51 °W | Updated 52 minutes ago

Mostly Cloudy
Mostly Cloudy
78 °F
Feels Like 78 °F
N
6
Wind Variable Wind from NE

Today
High -- | Low -- °F
--% Chance of Precip.
Yesterday
High -- | Low -- °F
Precip. -- in
Pressure 29.92 in
Visibility 10.0 miles
Clouds Few 2000 ft
Few 4000 ft
Few 10000 ft
Mostly Cloudy 20000 ft
Mostly Cloudy 25000 ft
Dew Point 76 °F
Humidity 93%
Rainfall 1.90 in
Snow Depth Not available.
7:08 AM 7:52 PM
Waning Crescent, 1% visible
METAR KCRP 310351Z 05005KT 10SM FEW020 FEW040 FEW100 BKN200 BKN250 26/24 A2992 RMK AO2 SLP130 OCNL LTGIC DSNT S SW CB DSNT S SW MOV SW T02560244 $
Pressure 29.92 in
Visibility 10.0 miles
Clouds Few 2000 ft
Few 4000 ft
Few 10000 ft
Mostly Cloudy 20000 ft
Mostly Cloudy 25000 ft
Dew Point 76 °F
Humidity 93%
Rainfall 1.90 in
Snow Depth Not available.
7:08 AM 7:52 PM
Waning Crescent, 1% visible
METAR KCRP 310351Z 05005KT 10SM FEW020 FEW040 FEW100 BKN200 BKN250 26/24 A2992 RMK AO2 SLP130 OCNL LTGIC DSNT S SW CB DSNT S SW MOV SW T02560244 $

10-Day Weather Forecast

Almanac

Astronomy

Aug. 30, 2016 Rise Set
Actual Time
Civil Twilight
Nautical Twilight
Astronomical Twilight
Moon
Length of Visible Light
Length of Day
Tomorrow will be .
, % of the Moon is Illuminated

Today's Extremes

State Highs State Lows

Community

WunderPhotos

Upload Photos

1,936,039 photos uploaded!

WunderBlog® & News

Nearby

Air Quality

  Air Quality AQ Index Pollutant
Not available.

Snow Depth

Station Depth Elevation

Earthquake Activity

City Distance Mag. Time & Date
Minimum magnitude displayed is 2.5.

Coastal Water Temperatures

Place Temperature

Stations

Nearby Weather Stations

Station Location Temp. Windchill Dew Point Humidity Wind Precip. Elev Updated Type
                   

Watches & Warnings

Coastal Flood Advisory
Issued: 9:37 PM CDT Aug. 30, 2016 – National Weather Service

... Coastal Flood Advisory remains in effect until 8 am CDT
Wednesday...

* coastal flooding... tide levels near or just above 2 feet mean
sea level around the time of high tide.

* Timing... the next high tide at Port Aransas will occur around
441 am CDT Wednesday morning.

* Impacts... at 2 feet above mean sea level... several beach
access roads become flooded. Minor flooding along area beaches
may occur. Steady periods of water at the dunes may occur.
Water may flood portions of Laguna shores drive in Flour
Bluff. North Beach may experience minor flooding.

Precautionary/preparedness actions...

A coastal Flood Advisory indicates that onshore winds and tides
will combine to generate flooding of low areas along the shore.



Gw/tb